Time;durP1;ratioP1;P1;durP2;ratioP2;P2;SDS_P1;SDS_P2;PMS_P1;PMS_P2;Temp;Humidity;BMP_temperature;BMP_pressure;BME280_temperature;BME280_humidity;BME280_pressure;Samples;Min_cycle;Max_cycle;Signal;HPM_P1;HPM_P2
2021/05/12 00:01:42;;;;;;;;;;;;;;;12.48;55.52;99565.06;1738454;81;20153;-63
2021/05/12 00:04:09;;;;;;;;;;;;;;;12.44;55.73;99567.72;1753318;81;20181;-64
2021/05/12 00:06:35;;;;;;;;;;;;;;;12.41;55.84;99565.38;1765808;81;20145;-64
2021/05/12 00:09:01;;;;;;;;;;;;;;;12.35;55.79;99569.51;1760343;81;20169;-63
2021/05/12 00:11:28;;;;;;;;;;;;;;;12.29;55.60;99572.82;1736939;81;20520;-63
2021/05/12 00:13:54;;;;;;;;;;;;;;;12.23;55.80;99583.58;1759284;81;20168;-63
2021/05/12 00:16:20;;;;;;;;;;;;;;;12.17;55.42;99584.20;1756571;81;20161;-62
2021/05/12 00:18:47;;;;;;;;;;;;;;;12.10;55.27;99574.40;1757066;81;20185;-63
2021/05/12 00:21:25;;;;;;;;;;;;;;;12.01;55.36;99578.86;1738427;81;20237;-63
2021/05/12 00:23:49;;;;;;;;;;;;;;;11.93;55.70;99574.83;1753452;81;20173;-62
2021/05/12 00:26:10;;;;;;;;;;;;;;;11.83;55.49;99582.37;1763744;81;20157;-63
2021/05/12 00:28:36;;;;;;;;;;;;;;;11.72;55.34;99583.98;1765359;81;20184;-63
2021/05/12 00:31:02;;;;;;;;;;;;;;;11.62;55.03;99581.95;1765699;81;20145;-63
2021/05/12 00:33:29;;;;;;;;;;;;;;;11.50;55.16;99582.69;1749547;81;20244;-63
2021/05/12 00:35:55;;;;;;;;;;;;;;;11.39;54.83;99592.22;1755840;81;20169;-63
2021/05/12 00:38:21;;;;;;;;;;;;;;;11.27;55.02;99583.71;1758920;81;20157;-63
2021/05/12 00:40:47;;;;;;;;;;;;;;;11.16;55.37;99592.72;1749157;81;20172;-62
2021/05/12 00:43:14;;;;;;;;;;;;;;;11.07;55.78;99593.64;1713064;81;20155;-63
2021/05/12 00:45:40;;;;;;;;;;;;;;;10.99;56.08;99596.23;1715531;81;20525;-62
2021/05/12 00:48:07;;;;;;;;;;;;;;;10.88;56.05;99595.50;1746598;81;20196;-62
2021/05/12 00:50:33;;;;;;;;;;;;;;;10.80;55.62;99591.95;1747184;81;20161;-62
2021/05/12 00:53:00;;;;;;;;;;;;;;;10.72;55.44;99574.66;1755038;81;20492;-63
2021/05/12 00:55:27;;;;;;;;;;;;;;;10.65;55.31;99570.48;1761522;81;20189;-62
2021/05/12 00:57:53;;;;;;;;;;;;;;;10.57;55.53;99566.45;1742489;81;20245;-62
2021/05/12 01:00:23;;;;;;;;;;;;;;;10.49;55.78;99565.86;1693609;81;20154;-63
2021/05/12 01:02:49;;;;;;;;;;;;;;;10.43;55.99;99566.47;1765112;81;20200;-63
2021/05/12 01:05:37;;;;;;;;;;;;;;;10.34;56.22;99558.93;1739518;81;20544;-63
2021/05/12 01:08:05;;;;;;;;;;;;;;;10.27;56.55;99565.79;1763988;81;20149;-63
2021/05/12 01:10:32;;;;;;;;;;;;;;;10.21;56.96;99569.00;1751841;81;20161;-63
2021/05/12 01:12:59;;;;;;;;;;;;;;;10.13;57.22;99577.67;1753155;81;20706;-62
2021/05/12 01:15:26;;;;;;;;;;;;;;;10.05;57.54;99574.95;1764112;81;20153;-63
2021/05/12 01:17:53;;;;;;;;;;;;;;;9.98;57.72;99563.30;1765580;81;20185;-62
2021/05/12 01:20:19;;;;;;;;;;;;;;;9.92;57.82;99550.20;1729480;81;20163;-62
2021/05/12 01:22:46;;;;;;;;;;;;;;;9.86;57.83;99544.19;1747789;81;20268;-63
2021/05/12 01:25:13;;;;;;;;;;;;;;;9.82;57.98;99547.61;1751227;81;20508;-63
2021/05/12 01:27:39;;;;;;;;;;;;;;;9.78;58.28;99561.23;1747145;81;20229;-62
2021/05/12 01:30:07;;;;;;;;;;;;;;;9.74;58.74;99561.19;1765253;81;20554;-63
2021/05/12 01:32:36;;;;;;;;;;;;;;;9.69;58.88;99569.56;1756278;81;20141;-63
2021/05/12 01:35:05;;;;;;;;;;;;;;;9.63;59.09;99566.16;1763711;81;20170;-63
2021/05/12 01:37:32;;;;;;;;;;;;;;;9.58;59.42;99563.14;1752808;81;20472;-62
2021/05/12 01:39:58;;;;;;;;;;;;;;;9.52;59.68;99557.45;1748908;81;20149;-62
2021/05/12 01:42:24;;;;;;;;;;;;;;;9.46;59.48;99563.78;1762792;81;20161;-62
2021/05/12 01:44:50;;;;;;;;;;;;;;;9.41;59.57;99552.35;1764581;81;20154;-62
2021/05/12 01:47:17;;;;;;;;;;;;;;;9.36;59.66;99553.27;1747472;81;20240;-63
2021/05/12 01:49:43;;;;;;;;;;;;;;;9.31;59.90;99554.17;1747113;81;20157;-62
2021/05/12 01:52:09;;;;;;;;;;;;;;;9.26;60.15;99565.17;1760261;81;20190;-61
2021/05/12 01:54:36;;;;;;;;;;;;;;;9.22;60.26;99557.66;1765534;81;20162;-61
2021/05/12 01:57:02;;;;;;;;;;;;;;;9.16;60.53;99568.30;1760560;81;20212;-62
2021/05/12 01:59:28;;;;;;;;;;;;;;;9.11;60.84;99567.42;1751258;81;20141;-62
2021/05/12 02:01:55;;;;;;;;;;;;;;;9.06;61.24;99572.77;1736850;81;20192;-61
2021/05/12 02:04:21;;;;;;;;;;;;;;;9.01;61.73;99578.45;1756317;81;20540;-62
2021/05/12 02:06:47;;;;;;;;;;;;;;;8.95;61.76;99579.02;1759594;81;20171;-62
2021/05/12 02:09:13;;;;;;;;;;;;;;;8.90;62.01;99582.09;1744064;81;20220;-61
2021/05/12 02:11:40;;;;;;;;;;;;;;;8.85;62.07;99580.35;1756509;81;20177;-62
2021/05/12 02:14:07;;;;;;;;;;;;;;;8.79;62.57;99579.60;1728604;81;20182;-61
2021/05/12 02:16:33;;;;;;;;;;;;;;;8.74;62.94;99583.13;1764940;81;20153;-62
2021/05/12 02:18:59;;;;;;;;;;;;;;;8.67;63.14;99588.11;1749265;81;20157;-61
2021/05/12 02:21:26;;;;;;;;;;;;;;;8.63;63.18;99585.91;1738310;81;20173;-61
2021/05/12 02:23:52;;;;;;;;;;;;;;;8.57;63.57;99579.38;1755738;81;20141;-62
2021/05/12 02:26:18;;;;;;;;;;;;;;;8.53;63.83;99591.17;1759194;81;20511;-61
2021/05/12 02:28:44;;;;;;;;;;;;;;;8.48;63.77;99586.30;1765127;81;20173;-61
2021/05/12 02:31:10;;;;;;;;;;;;;;;8.44;64.38;99591.98;1765217;81;20484;-61
2021/05/12 02:33:37;;;;;;;;;;;;;;;8.42;64.49;99600.52;1747174;81;20173;-61
2021/05/12 02:36:04;;;;;;;;;;;;;;;8.38;64.83;99596.44;1754973;81;20192;-62
2021/05/12 02:38:30;;;;;;;;;;;;;;;8.35;64.99;99598.87;1764461;81;20209;-62
2021/05/12 02:40:57;;;;;;;;;;;;;;;8.31;65.46;99597.48;1738374;81;20217;-62
2021/05/12 02:43:23;;;;;;;;;;;;;;;8.29;65.84;99595.47;1756581;81;20133;-61
2021/05/12 02:45:49;;;;;;;;;;;;;;;8.25;65.80;99601.48;1764436;81;20484;-61
2021/05/12 02:48:15;;;;;;;;;;;;;;;8.24;66.00;99598.48;1759968;81;20487;-62
2021/05/12 02:50:43;;;;;;;;;;;;;;;8.20;65.97;99593.14;1759967;81;20149;-61
2021/05/12 02:53:09;;;;;;;;;;;;;;;8.20;66.61;99587.05;1765519;81;20145;-63
2021/05/12 02:55:37;;;;;;;;;;;;;;;8.18;66.39;99597.72;1751240;81;20512;-63
2021/05/12 02:58:05;;;;;;;;;;;;;;;8.18;66.35;99595.58;1757475;81;20504;-61
2021/05/12 03:00:31;;;;;;;;;;;;;;;8.16;66.70;99600.98;1742021;81;20153;-62
2021/05/12 03:02:58;;;;;;;;;;;;;;;8.16;66.76;99589.13;1765195;81;20153;-63
2021/05/12 03:05:25;;;;;;;;;;;;;;;8.16;66.61;99594.39;1737446;81;20157;-63
2021/05/12 03:07:51;;;;;;;;;;;;;;;8.21;66.63;99596.14;1742627;81;20165;-63
2021/05/12 03:10:19;;;;;;;;;;;;;;;8.26;66.59;99592.59;1751865;81;20252;-63
2021/05/12 03:12:46;;;;;;;;;;;;;;;8.29;66.51;99594.15;1742470;81;20153;-63
2021/05/12 03:15:14;;;;;;;;;;;;;;;8.31;66.44;99599.63;1762388;81;20162;-63
2021/05/12 03:17:40;;;;;;;;;;;;;;;8.33;66.20;99595.05;1756468;81;20507;-63
2021/05/12 03:20:08;;;;;;;;;;;;;;;8.36;66.21;99604.01;1749778;81;20153;-63
2021/05/12 03:22:34;;;;;;;;;;;;;;;8.37;66.05;99594.30;1733381;81;20177;-63
2021/05/12 03:25:00;;;;;;;;;;;;;;;8.38;66.21;99595.11;1763951;81;20141;-63
2021/05/12 03:27:26;;;;;;;;;;;;;;;8.38;66.06;99588.06;1744108;81;20165;-62
2021/05/12 03:29:52;;;;;;;;;;;;;;;8.41;65.85;99591.73;1741964;81;20325;-62
2021/05/12 03:32:19;;;;;;;;;;;;;;;8.43;65.94;99595.58;1747176;81;20157;-63
2021/05/12 03:34:45;;;;;;;;;;;;;;;8.45;66.12;99589.69;1760125;81;20503;-63
2021/05/12 03:37:11;;;;;;;;;;;;;;;8.45;66.31;99583.09;1751305;81;20148;-62
2021/05/12 03:39:37;;;;;;;;;;;;;;;8.48;66.08;99588.11;1746629;81;20472;-63
2021/05/12 03:42:05;;;;;;;;;;;;;;;8.49;65.97;99589.75;1750716;81;20153;-62
2021/05/12 03:44:31;;;;;;;;;;;;;;;8.50;66.01;99588.80;1761046;81;20149;-63
2021/05/12 03:46:58;;;;;;;;;;;;;;;8.52;66.12;99580.27;1763859;81;20130;-62
2021/05/12 03:49:24;;;;;;;;;;;;;;;8.55;65.82;99583.95;1738468;81;20165;-62
2021/05/12 03:51:51;;;;;;;;;;;;;;;8.57;65.63;99589.92;1750716;81;20149;-63
2021/05/12 03:54:17;;;;;;;;;;;;;;;8.59;65.61;99589.30;1753780;81;20165;-62
2021/05/12 03:56:44;;;;;;;;;;;;;;;8.62;65.40;99583.77;1765955;81;20145;-63
2021/05/12 03:59:10;;;;;;;;;;;;;;;8.65;65.55;99571.60;1765741;81;20161;-63
2021/05/12 04:01:36;;;;;;;;;;;;;;;8.69;65.54;99573.48;1760541;81;20475;-63
2021/05/12 04:04:06;;;;;;;;;;;;;;;8.73;65.51;99570.44;1764860;81;20158;-62
2021/05/12 04:06:31;;;;;;;;;;;;;;;8.81;65.19;99580.75;1747153;81;20177;-62
2021/05/12 04:08:57;;;;;;;;;;;;;;;8.85;65.05;99576.89;1741520;81;20160;-63
2021/05/12 04:11:23;;;;;;;;;;;;;;;8.90;64.86;99581.23;1729277;81;20166;-63
2021/05/12 04:13:50;;;;;;;;;;;;;;;8.96;64.61;99575.89;1756504;81;20471;-63
2021/05/12 04:16:16;;;;;;;;;;;;;;;9.03;64.95;99576.50;1765789;81;20137;-62
2021/05/12 04:18:42;;;;;;;;;;;;;;;9.12;64.48;99588.03;1765578;81;20487;-63
2021/05/12 04:21:09;;;;;;;;;;;;;;;9.21;64.46;99583.22;1755528;81;20165;-62
2021/05/12 04:23:35;;;;;;;;;;;;;;;9.33;64.33;99588.70;1766334;81;20161;-62
2021/05/12 04:26:01;;;;;;;;;;;;;;;9.45;63.85;99585.89;1754788;81;20488;-63
2021/05/12 04:28:27;;;;;;;;;;;;;;;9.59;63.66;99592.51;1762489;81;20150;-62
2021/05/12 04:30:54;;;;;;;;;;;;;;;9.74;63.55;99588.91;1762362;81;20161;-62
2021/05/12 04:33:20;;;;;;;;;;;;;;;9.90;62.54;99587.31;1742561;81;20145;-61
2021/05/12 04:35:47;;;;;;;;;;;;;;;10.04;61.54;99582.05;1742531;81;20177;-62
2021/05/12 04:38:13;;;;;;;;;;;;;;;10.19;61.29;99596.89;1759702;81;20145;-61
2021/05/12 04:40:39;;;;;;;;;;;;;;;10.34;60.41;99589.33;1720620;81;20532;-63
2021/05/12 04:43:06;;;;;;;;;;;;;;;10.48;59.65;99579.57;1765149;81;20153;-61
2021/05/12 04:45:32;;;;;;;;;;;;;;;10.65;59.31;99589.81;1754773;81;20547;-63
2021/05/12 04:47:58;;;;;;;;;;;;;;;10.87;59.00;99589.03;1760296;81;20146;-63
2021/05/12 04:50:27;;;;;;;;;;;;;;;11.16;58.81;99589.25;1761188;81;20157;-62
2021/05/12 04:52:53;;;;;;;;;;;;;;;11.43;57.25;99587.80;1744813;81;20179;-62
2021/05/12 04:55:21;;;;;;;;;;;;;;;11.63;56.21;99574.33;1737963;81;20559;-63
2021/05/12 04:57:48;;;;;;;;;;;;;;;11.83;56.07;99578.41;1712235;83;20566;-64
2021/05/12 05:00:17;;;;;;;;;;;;;;;12.09;55.43;99570.11;1714162;82;20223;-63
2021/05/12 05:02:44;;;;;;;;;;;;;;;12.38;54.66;99576.30;1707621;82;20518;-63
2021/05/12 05:05:16;;;;;;;;;;;;;;;12.66;53.69;99581.33;1720763;82;20490;-63
2021/05/12 05:07:44;;;;;;;;;;;;;;;12.85;52.20;99581.03;1714069;82;20526;-64
2021/05/12 05:10:10;;;;;;;;;;;;;;;12.99;52.54;99583.00;1722916;82;20510;-62
2021/05/12 05:12:36;;;;;;;;;;;;;;;13.29;51.41;99585.98;1720582;82;20172;-63
2021/05/12 05:15:04;;;;;;;;;;;;;;;13.55;50.10;99590.29;1707755;82;20155;-64
2021/05/12 05:17:30;;;;;;;;;;;;;;;13.71;50.14;99588.08;1718428;82;20147;-64
2021/05/12 05:19:58;;;;;;;;;;;;;;;13.91;49.33;99578.70;1707609;82;20462;-63
2021/05/12 05:22:26;;;;;;;;;;;;;;;14.21;49.20;99582.08;1714862;82;20135;-65
2021/05/12 05:24:53;;;;;;;;;;;;;;;14.54;48.35;99585.39;1717285;82;20152;-63
2021/05/12 05:27:19;;;;;;;;;;;;;;;14.81;47.18;99588.05;1718448;82;20239;-61
2021/05/12 05:29:45;;;;;;;;;;;;;;;15.00;46.00;99588.57;1712028;82;20183;-69
2021/05/12 05:32:30;;;;;;;;;;;;;;;15.06;46.13;99585.21;1685248;84;20515;-65
2021/05/12 05:35:15;;;;;;;;;;;;;;;15.13;46.23;99585.64;1685316;84;20189;-64
2021/05/12 05:38:00;;;;;;;;;;;;;;;15.28;45.60;99587.48;1689012;84;20145;-66
2021/05/12 05:40:46;;;;;;;;;;;;;;;15.37;44.99;99585.08;1696152;84;20241;-66
2021/05/12 05:43:30;;;;;;;;;;;;;;;15.43;44.77;99579.52;1680725;84;20166;-64
2021/05/12 05:46:15;;;;;;;;;;;;;;;15.67;44.71;99569.11;1685595;84;20199;-65
2021/05/12 05:48:59;;;;;;;;;;;;;;;15.94;43.98;99583.67;1691106;84;20510;-64
2021/05/12 05:51:44;;;;;;;;;;;;;;;15.91;43.31;99574.19;1668741;84;20513;-64
2021/05/12 05:54:29;;;;;;;;;;;;;;;15.95;43.64;99575.16;1690858;84;20506;-64
2021/05/12 05:57:15;;;;;;;;;;;;;;;16.07;43.14;99576.35;1694125;84;20154;-65
2021/05/12 06:00:00;;;;;;;;;;;;;;;16.09;42.68;99575.14;1681492;84;20484;-64
2021/05/12 06:02:44;;;;;;;;;;;;;;;16.23;42.00;99576.63;1694030;84;20484;-62
2021/05/12 06:05:28;;;;;;;;;;;;;;;16.39;41.94;99568.41;1687365;84;20153;-65
2021/05/12 06:08:14;;;;;;;;;;;;;;;16.54;41.92;99566.20;1682188;84;20158;-66
2021/05/12 06:10:59;;;;;;;;;;;;;;;16.52;42.10;99574.91;1706588;83;20175;-66
2021/05/12 06:13:44;;;;;;;;;;;;;;;16.48;41.78;99558.45;1736476;82;20231;-64
2021/05/12 06:16:29;;;;;;;;;;;;;;;16.74;41.28;99565.91;1724954;82;20151;-64
2021/05/12 06:19:14;;;;;;;;;;;;;;;17.25;40.10;99565.73;1693297;82;20171;-65
2021/05/12 06:21:59;;;;;;;;;;;;;;;17.97;38.42;99565.05;1723138;82;20159;-65
2021/05/12 06:24:44;;;;;;;;;;;;;;;18.56;36.99;99569.48;1730782;82;20170;-64
2021/05/12 06:27:29;;;;;;;;;;;;;;;19.14;35.93;99566.27;1725705;82;20243;-70
2021/05/12 06:30:14;;;;;;;;;;;;;;;19.66;34.68;99567.23;1733382;82;20254;-68
2021/05/12 06:32:59;;;;;;;;;;;;;;;19.87;34.07;99559.45;1721067;82;20179;-66
2021/05/12 06:35:36;;;;;;;;;;;;;;;19.98;33.98;99561.47;1655270;86;20164;-66
2021/05/12 06:38:23;;;;;;;;;;;;;;;19.88;33.95;99561.12;1708472;82;20143;-66
2021/05/12 06:40:52;;;;;;;;;;;;;;;19.62;34.16;99565.16;1707584;83;20205;-68
2021/05/12 06:43:18;;;;;;;;;;;;;;;19.31;34.73;99570.69;1725092;83;20314;-65
2021/05/12 06:45:45;;;;;;;;;;;;;;;19.05;34.93;99562.96;1722967;82;20203;-66
2021/05/12 06:48:11;;;;;;;;;;;;;;;18.93;34.63;99562.77;1690726;83;20169;-65
2021/05/12 06:50:38;;;;;;;;;;;;;;;18.89;34.57;99566.89;1715099;82;20403;-66
2021/05/12 06:53:04;;;;;;;;;;;;;;;18.47;34.77;99562.66;1696078;84;20138;-67
2021/05/12 06:55:31;;;;;;;;;;;;;;;18.07;36.01;99562.52;1689449;84;20181;-65
2021/05/12 06:57:57;;;;;;;;;;;;;;;17.85;36.65;99562.64;1694044;84;20213;-67
2021/05/12 07:00:24;;;;;;;;;;;;;;;17.82;37.01;99558.98;1689802;84;20173;-67
2021/05/12 07:02:51;;;;;;;;;;;;;;;17.99;37.11;99553.66;1693851;84;20232;-66
2021/05/12 07:05:19;;;;;;;;;;;;;;;18.46;35.94;99551.63;1708393;82;20152;-66
2021/05/12 07:07:47;;;;;;;;;;;;;;;19.24;34.36;99562.64;1704270;84;20499;-67
2021/05/12 07:10:14;;;;;;;;;;;;;;;19.56;34.21;99555.60;1704667;84;20181;-67
2021/05/12 07:12:40;;;;;;;;;;;;;;;19.78;32.29;99546.78;1699156;84;20165;-67
2021/05/12 07:15:08;;;;;;;;;;;;;;;19.49;32.79;99552.60;1686838;84;20166;-68
2021/05/12 07:17:34;;;;;;;;;;;;;;;19.14;34.15;99554.21;1705172;82;20169;-67
2021/05/12 07:20:00;;;;;;;;;;;;;;;19.06;34.47;99552.56;1727311;82;20188;-70
2021/05/12 07:22:27;;;;;;;;;;;;;;;18.83;33.79;99552.95;1722469;82;20219;-71
2021/05/12 07:24:53;;;;;;;;;;;;;;;18.38;34.70;99560.15;1726788;81;20575;-66
2021/05/12 07:27:22;;;;;;;;;;;;;;;17.94;35.31;99552.09;1707629;82;20177;-66
2021/05/12 07:29:49;;;;;;;;;;;;;;;17.51;36.17;99554.91;1695439;84;20161;-65
2021/05/12 07:32:16;;;;;;;;;;;;;;;17.11;36.69;99544.45;1736439;82;20165;-69
2021/05/12 07:34:42;;;;;;;;;;;;;;;16.79;36.97;99550.63;1732640;82;20134;-65
2021/05/12 07:37:09;;;;;;;;;;;;;;;16.60;37.61;99560.10;1730595;82;20157;-67
2021/05/12 07:39:36;;;;;;;;;;;;;;;16.39;37.55;99540.39;1734430;82;20515;-68
2021/05/12 07:42:06;;;;;;;;;;;;;;;16.14;38.12;99552.41;1733686;82;20483;-68
2021/05/12 07:44:32;;;;;;;;;;;;;;;16.16;38.31;99559.71;1733944;82;20476;-66
2021/05/12 07:46:58;;;;;;;;;;;;;;;16.47;38.22;99552.27;1733519;82;20623;-65
2021/05/12 07:49:24;;;;;;;;;;;;;;;16.68;38.08;99545.28;1733683;82;20185;-66
2021/05/12 07:51:51;;;;;;;;;;;;;;;16.63;38.01;99553.06;1733703;82;20169;-68
2021/05/12 07:54:17;;;;;;;;;;;;;;;16.44;38.26;99544.66;1727710;81;20738;-66
2021/05/12 07:56:44;;;;;;;;;;;;;;;16.10;38.75;99556.80;1724168;82;20172;-67
2021/05/12 07:59:10;;;;;;;;;;;;;;;15.77;39.83;99556.89;1735962;82;20492;-66
2021/05/12 08:01:43;;;;;;;;;;;;;;;15.56;40.30;99558.91;1719084;82;20184;-67
2021/05/12 08:04:08;;;;;;;;;;;;;;;15.36;41.12;99557.31;1702983;82;20190;-68
2021/05/12 08:06:35;;;;;;;;;;;;;;;15.28;41.38;99556.38;1694257;84;20277;-69
2021/05/12 08:09:06;;;;;;;;;;;;;;;15.34;41.17;99558.30;1694171;84;20543;-70
2021/05/12 08:11:32;;;;;;;;;;;;;;;15.26;41.83;99569.53;1669969;84;20182;-69
2021/05/12 08:13:59;;;;;;;;;;;;;;;15.24;41.88;99564.41;1699923;84;20193;-71
2021/05/12 08:16:25;;;;;;;;;;;;;;;15.38;41.63;99551.29;1696773;84;20202;-68
2021/05/12 08:18:51;;;;;;;;;;;;;;;15.33;41.07;99549.16;1695594;84;20217;-71
2021/05/12 08:21:19;;;;;;;;;;;;;;;15.21;41.47;99538.64;1693937;84;21093;-70
2021/05/12 08:23:45;;;;;;;;;;;;;;;15.25;41.99;99533.27;1708542;83;20182;-66
2021/05/12 08:26:11;;;;;;;;;;;;;;;15.31;42.16;99544.52;1695085;83;20146;-67
2021/05/12 08:28:39;;;;;;;;;;;;;;;15.50;41.38;99533.82;1702094;83;20196;-67
2021/05/12 08:31:06;;;;;;;;;;;;;;;15.56;41.06;99534.44;1715013;83;20223;-66
2021/05/12 08:33:32;;;;;;;;;;;;;;;15.55;41.49;99529.29;1699769;83;20171;-67
2021/05/12 08:35:59;;;;;;;;;;;;;;;15.68;41.20;99527.62;1726475;82;20191;-67
2021/05/12 08:38:26;;;;;;;;;;;;;;;15.70;40.58;99521.59;1724010;82;20163;-68
2021/05/12 08:40:53;;;;;;;;;;;;;;;15.71;41.02;99519.27;1728474;82;21040;-67
2021/05/12 08:43:20;;;;;;;;;;;;;;;15.91;40.74;99525.37;1728454;81;20191;-69
2021/05/12 08:45:46;;;;;;;;;;;;;;;16.16;40.04;99514.37;1736874;82;20171;-70
2021/05/12 08:48:13;;;;;;;;;;;;;;;16.31;40.17;99517.84;1718354;82;20213;-68
2021/05/12 08:50:40;;;;;;;;;;;;;;;16.48;40.01;99513.08;1721387;82;20227;-71
2021/05/12 08:53:06;;;;;;;;;;;;;;;16.63;39.94;99511.69;1685407;82;20207;-70
2021/05/12 08:55:33;;;;;;;;;;;;;;;16.53;38.98;99508.49;1726466;81;20263;-68
2021/05/12 08:58:00;;;;;;;;;;;;;;;16.20;39.22;99509.00;1737201;82;20581;-68
2021/05/12 09:00:27;;;;;;;;;;;;;;;15.96;39.91;99502.98;1726979;82;20564;-71
2021/05/12 09:02:53;;;;;;;;;;;;;;;15.86;40.77;99509.09;1728288;82;20523;-69
2021/05/12 09:05:20;;;;;;;;;;;;;;;15.87;40.57;99504.09;1731167;82;20160;-68
2021/05/12 09:07:47;;;;;;;;;;;;;;;15.89;40.43;99501.55;1723616;82;20212;-68
2021/05/12 09:10:14;;;;;;;;;;;;;;;15.78;40.53;99506.03;1718515;82;20199;-69
2021/05/12 09:12:43;;;;;;;;;;;;;;;15.60;40.91;99494.41;1728974;82;20167;-69
2021/05/12 09:15:12;;;;;;;;;;;;;;;15.50;41.20;99505.36;1725382;83;20198;-70
2021/05/12 09:17:39;;;;;;;;;;;;;;;15.33;41.51;99499.87;1725074;83;20180;-70
2021/05/12 09:20:24;;;;;;;;;;;;;;;15.21;42.01;99498.69;1726877;83;20179;-69
2021/05/12 09:23:01;;;;;;;;;;;;;;;15.25;42.31;99500.78;1724722;83;20502;-67
2021/05/12 09:25:28;;;;;;;;;;;;;;;15.47;42.14;99493.72;1718772;83;20552;-70
2021/05/12 09:28:18;;;;;;;;;;;;;;;15.76;41.56;99487.25;1721333;83;20585;-70
2021/05/12 09:30:49;;;;;;;;;;;;;;;16.40;41.27;99491.35;1722582;83;20210;-69
2021/05/12 09:33:27;;;;;;;;;;;;;;;17.34;38.73;99484.91;1722547;83;20152;-70
2021/05/12 09:35:54;;;;;;;;;;;;;;;17.82;36.90;99478.26;1725047;83;20519;-67
2021/05/12 09:38:22;;;;;;;;;;;;;;;17.73;36.98;99470.58;1720269;82;20294;-69
2021/05/12 09:41:04;;;;;;;;;;;;;;;17.63;37.18;99476.31;1719551;82;20163;-67
2021/05/12 09:43:31;;;;;;;;;;;;;;;17.56;37.56;99468.77;1720434;82;20214;-69
2021/05/12 09:46:01;;;;;;;;;;;;;;;17.43;38.32;99466.84;1716221;82;20195;-67
2021/05/12 09:48:27;;;;;;;;;;;;;;;17.32;38.10;99479.43;1708491;82;20645;-67
2021/05/12 09:50:53;;;;;;;;;;;;;;;17.11;38.30;99473.66;1729123;82;20178;-68
2021/05/12 09:53:20;;;;;;;;;;;;;;;17.05;38.66;99472.59;1696724;82;20187;-68
2021/05/12 09:55:48;;;;;;;;;;;;;;;17.23;38.60;99480.12;1709972;83;20258;-66
2021/05/12 09:58:22;;;;;;;;;;;;;;;17.30;38.17;99459.61;1728478;82;20190;-69
2021/05/12 10:00:50;;;;;;;;;;;;;;;17.21;38.26;99458.94;1713935;83;20518;-66
2021/05/12 10:03:22;;;;;;;;;;;;;;;17.02;38.60;99472.97;1716457;82;20627;-68
2021/05/12 10:05:52;;;;;;;;;;;;;;;16.86;39.09;99454.08;1728804;82;20522;-66
2021/05/12 10:08:26;;;;;;;;;;;;;;;16.74;39.31;99446.23;1730874;82;20155;-63
2021/05/12 10:11:02;;;;;;;;;;;;;;;16.61;39.16;99462.48;1727680;82;20171;-69
2021/05/12 10:13:33;;;;;;;;;;;;;;;16.66;39.68;99449.88;1702954;82;20273;-66
2021/05/12 10:16:00;;;;;;;;;;;;;;;16.94;39.62;99462.45;1715131;82;20191;-65
2021/05/12 10:18:26;;;;;;;;;;;;;;;17.09;37.37;99465.83;1722797;82;20640;-67
2021/05/12 10:20:57;;;;;;;;;;;;;;;16.91;38.07;99454.33;1725037;83;20191;-66
2021/05/12 10:23:21;;;;;;;;;;;;;;;16.85;37.81;99449.25;1681060;83;20224;-65
2021/05/12 10:25:48;;;;;;;;;;;;;;;16.85;38.45;99451.92;1708033;83;20168;-66
2021/05/12 10:28:14;;;;;;;;;;;;;;;16.94;38.26;99451.77;1708351;83;20506;-67
2021/05/12 10:30:40;;;;;;;;;;;;;;;17.00;38.04;99457.16;1703890;83;20191;-66
2021/05/12 10:33:11;;;;;;;;;;;;;;;16.88;37.22;99460.05;1703168;83;20216;-67
2021/05/12 10:35:36;;;;;;;;;;;;;;;16.63;37.96;99448.95;1700424;83;20192;-64
2021/05/12 10:38:03;;;;;;;;;;;;;;;16.41;37.82;99452.14;1695221;83;20200;-65
2021/05/12 10:40:35;;;;;;;;;;;;;;;16.09;38.41;99453.78;1694143;83;20567;-66
2021/05/12 10:43:22;;;;;;;;;;;;;;;15.92;39.26;99448.38;1705301;83;20523;-67
2021/05/12 10:45:59;;;;;;;;;;;;;;;15.94;39.55;99453.52;1718068;83;20701;-67
2021/05/12 10:48:34;;;;;;;;;;;;;;;16.03;39.71;99452.36;1704454;82;20195;-67
2021/05/12 10:51:02;;;;;;;;;;;;;;;16.15;39.99;99452.72;1735051;82;20539;-68
2021/05/12 10:53:33;;;;;;;;;;;;;;;16.28;39.55;99440.83;1722526;82;20184;-67
2021/05/12 10:56:01;;;;;;;;;;;;;;;16.49;38.66;99439.98;1684312;84;20166;-66
2021/05/12 10:58:29;;;;;;;;;;;;;;;16.75;38.65;99432.70;1699174;83;20188;-67
2021/05/12 11:01:04;;;;;;;;;;;;;;;17.06;38.90;99430.19;1674117;84;20190;-66
2021/05/12 11:03:52;;;;;;;;;;;;;;;17.47;38.06;99432.04;1709574;82;20504;-65
2021/05/12 11:06:23;;;;;;;;;;;;;;;17.87;36.88;99431.39;1699027;83;20211;-65
2021/05/12 11:09:11;;;;;;;;;;;;;;;18.10;36.35;99431.02;1719493;82;20167;-66
2021/05/12 11:11:53;;;;;;;;;;;;;;;18.06;35.73;99434.61;1730522;82;20183;-67
2021/05/12 11:14:31;;;;;;;;;;;;;;;17.85;36.16;99424.90;1723269;82;20518;-66
2021/05/12 11:17:15;;;;;;;;;;;;;;;17.72;36.49;99416.81;1733881;82;20549;-67
2021/05/12 11:19:47;;;;;;;;;;;;;;;17.54;37.02;99416.83;1733295;82;20155;-67
2021/05/12 11:25:18;;;;;;;;;;;;;;;17.62;37.05;99403.30;1704258;83;20243;-66
2021/05/12 11:33:24;;;;;;;;;;;;;;;17.95;37.46;99396.42;1703084;83;20217;-66
2021/05/12 11:35:56;;;;;;;;;;;;;;;18.30;36.69;99390.39;1683387;84;20174;-65
2021/05/12 11:38:20;;;;;;;;;;;;;;;18.29;35.92;99396.79;1684310;84;20168;-67
2021/05/12 11:41:07;;;;;;;;;;;;;;;18.12;34.99;99395.52;1700361;84;20173;-66
2021/05/12 11:43:42;;;;;;;;;;;;;;;17.81;35.76;99388.34;1655587;84;20176;-66
2021/05/12 11:46:14;;;;;;;;;;;;;;;17.49;35.88;99397.06;1701038;84;20182;-65
2021/05/12 11:48:43;;;;;;;;;;;;;;;17.28;36.35;99397.50;1704458;84;20185;-64
2021/05/12 11:51:10;;;;;;;;;;;;;;;17.10;36.51;99395.38;1707831;84;20150;-66
2021/05/12 11:53:38;;;;;;;;;;;;;;;17.16;36.58;99385.73;1707281;84;20485;-66
2021/05/12 11:56:05;;;;;;;;;;;;;;;17.26;36.41;99383.52;1707363;84;20161;-66
2021/05/12 11:58:32;;;;;;;;;;;;;;;17.36;36.10;99379.97;1667456;84;20169;-65
2021/05/12 12:01:06;;;;;;;;;;;;;;;17.50;36.29;99367.47;1727088;82;21225;-66
2021/05/12 12:03:34;;;;;;;;;;;;;;;17.66;35.98;99368.45;1702216;82;20165;-64
2021/05/12 12:06:05;;;;;;;;;;;;;;;17.85;36.20;99367.39;1679259;84;20505;-65
2021/05/12 12:08:32;;;;;;;;;;;;;;;17.98;35.46;99381.31;1704096;83;20183;-67
2021/05/12 12:11:12;;;;;;;;;;;;;;;17.91;35.68;99377.27;1704875;83;20159;-66
2021/05/12 12:13:38;;;;;;;;;;;;;;;17.79;35.77;99368.19;1705561;84;20204;-65
2021/05/12 12:16:05;;;;;;;;;;;;;;;17.60;36.45;99367.92;1721054;83;20183;-65
2021/05/12 12:18:33;;;;;;;;;;;;;;;17.51;36.37;99362.45;1718074;83;20148;-65
2021/05/12 12:20:59;;;;;;;;;;;;;;;17.43;37.27;99362.13;1705204;83;20164;-65
2021/05/12 12:23:33;;;;;;;;;;;;;;;17.62;37.46;99360.53;1695637;84;20182;-64
2021/05/12 12:26:21;;;;;;;;;;;;;;;17.88;37.20;99359.47;1706432;84;20312;-69
2021/05/12 12:28:56;;;;;;;;;;;;;;;18.13;36.67;99361.88;1719635;83;20151;-66
2021/05/12 12:31:27;;;;;;;;;;;;;;;18.22;35.55;99353.14;1724175;83;20167;-66
2021/05/12 12:34:19;;;;;;;;;;;;;;;18.11;35.23;99353.75;1734133;82;20139;-64
2021/05/12 12:36:59;;;;;;;;;;;;;;;17.89;35.44;99344.56;1718085;83;20198;-65
2021/05/12 12:39:42;;;;;;;;;;;;;;;18.07;36.20;99341.78;1709817;83;20544;-66
2021/05/12 12:42:09;;;;;;;;;;;;;;;18.42;35.25;99339.73;1720100;83;20151;-67
2021/05/12 12:44:36;;;;;;;;;;;;;;;18.63;34.64;99327.45;1697408;83;20169;-66
2021/05/12 12:47:04;;;;;;;;;;;;;;;18.65;34.56;99328.59;1723368;83;20489;-65
2021/05/12 12:49:47;;;;;;;;;;;;;;;18.64;34.79;99344.34;1716867;83;20136;-66
2021/05/12 12:52:16;;;;;;;;;;;;;;;18.51;34.30;99329.63;1684238;84;20492;-64
2021/05/12 12:54:58;;;;;;;;;;;;;;;18.42;34.67;99335.22;1704624;84;20190;-63
2021/05/12 12:57:11;;;;;;;;;;;;;;;18.40;34.80;99345.31;1709293;82;20169;-66
2021/05/12 13:00:01;;;;;;;;;;;;;;;18.37;35.47;99336.88;1685185;84;20193;-64
2021/05/12 13:02:28;;;;;;;;;;;;;;;18.32;34.86;99330.78;1708293;84;20165;-65
2021/05/12 13:05:14;;;;;;;;;;;;;;;18.15;35.10;99331.72;1709298;84;20190;-65
2021/05/12 13:07:41;;;;;;;;;;;;;;;18.14;35.56;99320.72;1715007;84;20220;-64
2021/05/12 13:10:28;;;;;;;;;;;;;;;18.16;35.77;99324.02;1709292;84;20556;-64
2021/05/12 13:12:55;;;;;;;;;;;;;;;18.10;35.66;99324.81;1703349;84;20170;-64